sensor_id;sensor_type;location;lat;lon;timestamp;P1;durP1;ratioP1;P2;durP2;ratioP2
63193;SDS011;49289;51.670;5.624;2023-04-15T00:01:20;6.10;;;3.90;;
63193;SDS011;49289;51.670;5.624;2023-04-15T00:03:07;7.00;;;3.70;;
63193;SDS011;49289;51.670;5.624;2023-04-15T00:04:54;6.70;;;3.90;;
63193;SDS011;49289;51.670;5.624;2023-04-15T00:06:41;7.50;;;3.80;;
63193;SDS011;49289;51.670;5.624;2023-04-15T00:08:28;5.80;;;3.80;;
63193;SDS011;49289;51.670;5.624;2023-04-15T00:10:16;6.50;;;3.70;;
63193;SDS011;49289;51.670;5.624;2023-04-15T00:12:03;7.50;;;3.70;;
63193;SDS011;49289;51.670;5.624;2023-04-15T00:13:52;7.70;;;4.20;;
63193;SDS011;49289;51.670;5.624;2023-04-15T00:15:41;8.50;;;4.10;;
63193;SDS011;49289;51.670;5.624;2023-04-15T00:17:29;7.30;;;4.30;;
63193;SDS011;49289;51.670;5.624;2023-04-15T00:19:16;8.50;;;4.10;;
63193;SDS011;49289;51.670;5.624;2023-04-15T00:21:04;7.80;;;4.40;;
63193;SDS011;49289;51.670;5.624;2023-04-15T00:22:52;7.20;;;4.20;;
63193;SDS011;49289;51.670;5.624;2023-04-15T00:24:40;8.50;;;4.20;;
63193;SDS011;49289;51.670;5.624;2023-04-15T00:26:28;7.70;;;4.20;;
63193;SDS011;49289;51.670;5.624;2023-04-15T00:28:16;8.30;;;4.30;;
63193;SDS011;49289;51.670;5.624;2023-04-15T00:30:03;8.60;;;4.10;;
63193;SDS011;49289;51.670;5.624;2023-04-15T00:31:53;7.80;;;4.10;;
63193;SDS011;49289;51.670;5.624;2023-04-15T00:33:40;10.80;;;4.50;;
63193;SDS011;49289;51.670;5.624;2023-04-15T00:35:27;7.10;;;4.50;;
63193;SDS011;49289;51.670;5.624;2023-04-15T00:37:14;7.90;;;4.10;;
63193;SDS011;49289;51.670;5.624;2023-04-15T00:39:01;7.40;;;4.70;;
63193;SDS011;49289;51.670;5.624;2023-04-15T00:40:48;8.30;;;4.60;;
63193;SDS011;49289;51.670;5.624;2023-04-15T00:42:35;6.80;;;4.70;;
63193;SDS011;49289;51.670;5.624;2023-04-15T00:44:23;9.80;;;4.60;;
63193;SDS011;49289;51.670;5.624;2023-04-15T00:46:11;7.30;;;4.50;;
63193;SDS011;49289;51.670;5.624;2023-04-15T00:47:59;9.80;;;4.90;;
63193;SDS011;49289;51.670;5.624;2023-04-15T00:49:46;7.10;;;4.80;;
63193;SDS011;49289;51.670;5.624;2023-04-15T00:51:34;10.80;;;4.70;;
63193;SDS011;49289;51.670;5.624;2023-04-15T00:53:22;14.20;;;4.90;;
63193;SDS011;49289;51.670;5.624;2023-04-15T00:55:11;7.70;;;4.90;;
63193;SDS011;49289;51.670;5.624;2023-04-15T00:56:58;6.70;;;4.30;;
63193;SDS011;49289;51.670;5.624;2023-04-15T00:58:46;7.30;;;4.50;;
63193;SDS011;49289;51.670;5.624;2023-04-15T01:00:34;5.90;;;4.50;;
63193;SDS011;49289;51.670;5.624;2023-04-15T01:02:21;7.90;;;4.90;;
63193;SDS011;49289;51.670;5.624;2023-04-15T01:04:09;9.10;;;4.90;;
63193;SDS011;49289;51.670;5.624;2023-04-15T01:05:55;7.30;;;4.80;;
63193;SDS011;49289;51.670;5.624;2023-04-15T01:07:42;8.50;;;4.90;;
63193;SDS011;49289;51.670;5.624;2023-04-15T01:09:29;6.80;;;4.70;;
63193;SDS011;49289;51.670;5.624;2023-04-15T01:11:17;7.30;;;5.10;;
63193;SDS011;49289;51.670;5.624;2023-04-15T01:13:05;10.90;;;5.00;;
63193;SDS011;49289;51.670;5.624;2023-04-15T01:14:52;9.00;;;4.70;;
63193;SDS011;49289;51.670;5.624;2023-04-15T01:16:40;7.30;;;5.10;;
63193;SDS011;49289;51.670;5.624;2023-04-15T01:18:28;7.20;;;4.70;;
63193;SDS011;49289;51.670;5.624;2023-04-15T01:20:16;8.90;;;5.00;;
63193;SDS011;49289;51.670;5.624;2023-04-15T01:22:04;6.90;;;4.90;;
63193;SDS011;49289;51.670;5.624;2023-04-15T01:23:52;6.50;;;4.60;;
63193;SDS011;49289;51.670;5.624;2023-04-15T01:25:41;7.70;;;4.80;;
63193;SDS011;49289;51.670;5.624;2023-04-15T01:27:28;10.80;;;5.30;;
63193;SDS011;49289;51.670;5.624;2023-04-15T01:29:15;8.60;;;4.80;;
63193;SDS011;49289;51.670;5.624;2023-04-15T01:31:12;7.00;;;4.60;;
63193;SDS011;49289;51.670;5.624;2023-04-15T01:32:59;7.10;;;4.90;;
63193;SDS011;49289;51.670;5.624;2023-04-15T01:34:47;7.50;;;4.90;;
63193;SDS011;49289;51.670;5.624;2023-04-15T01:36:35;7.50;;;4.80;;
63193;SDS011;49289;51.670;5.624;2023-04-15T01:38:24;7.00;;;4.50;;
63193;SDS011;49289;51.670;5.624;2023-04-15T01:40:11;6.30;;;4.50;;
63193;SDS011;49289;51.670;5.624;2023-04-15T01:41:59;7.90;;;5.10;;
63193;SDS011;49289;51.670;5.624;2023-04-15T01:43:46;7.60;;;4.60;;
63193;SDS011;49289;51.670;5.624;2023-04-15T01:45:33;8.10;;;4.80;;
63193;SDS011;49289;51.670;5.624;2023-04-15T01:47:20;7.90;;;5.20;;
63193;SDS011;49289;51.670;5.624;2023-04-15T01:49:08;6.40;;;4.90;;
63193;SDS011;49289;51.670;5.624;2023-04-15T01:50:56;8.00;;;5.00;;
63193;SDS011;49289;51.670;5.624;2023-04-15T01:52:44;8.40;;;5.30;;
63193;SDS011;49289;51.670;5.624;2023-04-15T01:54:33;9.70;;;5.10;;
63193;SDS011;49289;51.670;5.624;2023-04-15T01:56:21;7.60;;;5.10;;
63193;SDS011;49289;51.670;5.624;2023-04-15T01:58:08;7.40;;;5.30;;
63193;SDS011;49289;51.670;5.624;2023-04-15T01:59:55;11.00;;;5.30;;
63193;SDS011;49289;51.670;5.624;2023-04-15T02:01:42;8.40;;;4.90;;
63193;SDS011;49289;51.670;5.624;2023-04-15T02:03:30;9.70;;;5.40;;
63193;SDS011;49289;51.670;5.624;2023-04-15T02:05:18;11.40;;;5.00;;
63193;SDS011;49289;51.670;5.624;2023-04-15T02:07:06;7.30;;;5.40;;
63193;SDS011;49289;51.670;5.624;2023-04-15T02:08:54;7.10;;;5.10;;
63193;SDS011;49289;51.670;5.624;2023-04-15T02:10:42;9.20;;;5.10;;
63193;SDS011;49289;51.670;5.624;2023-04-15T02:12:29;7.60;;;5.10;;
63193;SDS011;49289;51.670;5.624;2023-04-15T02:14:17;6.50;;;4.90;;
63193;SDS011;49289;51.670;5.624;2023-04-15T02:16:04;9.10;;;5.30;;
63193;SDS011;49289;51.670;5.624;2023-04-15T02:18:00;5.70;;;4.90;;
63193;SDS011;49289;51.670;5.624;2023-04-15T02:19:48;6.40;;;4.90;;
63193;SDS011;49289;51.670;5.624;2023-04-15T02:21:35;7.10;;;5.10;;
63193;SDS011;49289;51.670;5.624;2023-04-15T02:23:22;8.00;;;5.20;;
63193;SDS011;49289;51.670;5.624;2023-04-15T02:25:10;7.10;;;5.10;;
63193;SDS011;49289;51.670;5.624;2023-04-15T02:26:57;6.20;;;4.90;;
63193;SDS011;49289;51.670;5.624;2023-04-15T02:28:45;7.90;;;5.30;;
63193;SDS011;49289;51.670;5.624;2023-04-15T02:30:33;7.80;;;5.70;;
63193;SDS011;49289;51.670;5.624;2023-04-15T02:32:20;6.30;;;5.00;;
63193;SDS011;49289;51.670;5.624;2023-04-15T02:34:08;7.40;;;5.30;;
63193;SDS011;49289;51.670;5.624;2023-04-15T02:35:56;7.20;;;5.20;;
63193;SDS011;49289;51.670;5.624;2023-04-15T02:37:44;8.60;;;5.40;;
63193;SDS011;49289;51.670;5.624;2023-04-15T02:39:32;9.70;;;5.70;;
63193;SDS011;49289;51.670;5.624;2023-04-15T02:41:20;7.90;;;5.40;;
63193;SDS011;49289;51.670;5.624;2023-04-15T02:43:08;8.60;;;5.60;;
63193;SDS011;49289;51.670;5.624;2023-04-15T02:44:55;11.10;;;5.50;;
63193;SDS011;49289;51.670;5.624;2023-04-15T02:46:42;8.70;;;5.20;;
63193;SDS011;49289;51.670;5.624;2023-04-15T02:48:29;7.30;;;5.20;;
63193;SDS011;49289;51.670;5.624;2023-04-15T02:50:16;8.50;;;5.80;;
63193;SDS011;49289;51.670;5.624;2023-04-15T02:52:04;7.60;;;5.50;;
63193;SDS011;49289;51.670;5.624;2023-04-15T02:53:51;10.00;;;6.20;;
63193;SDS011;49289;51.670;5.624;2023-04-15T02:55:39;9.20;;;5.90;;
63193;SDS011;49289;51.670;5.624;2023-04-15T02:57:26;11.10;;;6.10;;
63193;SDS011;49289;51.670;5.624;2023-04-15T02:59:13;9.80;;;5.90;;
63193;SDS011;49289;51.670;5.624;2023-04-15T03:01:00;8.60;;;5.80;;
63193;SDS011;49289;51.670;5.624;2023-04-15T03:02:47;9.30;;;6.00;;
63193;SDS011;49289;51.670;5.624;2023-04-15T03:04:34;10.60;;;6.20;;
63193;SDS011;49289;51.670;5.624;2023-04-15T03:06:21;6.80;;;5.40;;
63193;SDS011;49289;51.670;5.624;2023-04-15T03:08:08;9.60;;;6.10;;
63193;SDS011;49289;51.670;5.624;2023-04-15T03:09:55;8.50;;;5.60;;
63193;SDS011;49289;51.670;5.624;2023-04-15T03:11:43;7.30;;;5.90;;
63193;SDS011;49289;51.670;5.624;2023-04-15T03:13:32;8.30;;;6.10;;
63193;SDS011;49289;51.670;5.624;2023-04-15T03:15:20;9.50;;;5.60;;
63193;SDS011;49289;51.670;5.624;2023-04-15T03:17:08;10.40;;;6.30;;
63193;SDS011;49289;51.670;5.624;2023-04-15T03:18:55;11.20;;;6.70;;
63193;SDS011;49289;51.670;5.624;2023-04-15T03:20:42;11.60;;;6.20;;
63193;SDS011;49289;51.670;5.624;2023-04-15T03:22:29;11.40;;;6.20;;
63193;SDS011;49289;51.670;5.624;2023-04-15T03:24:16;8.30;;;6.10;;
63193;SDS011;49289;51.670;5.624;2023-04-15T03:26:03;9.10;;;6.30;;
63193;SDS011;49289;51.670;5.624;2023-04-15T03:27:50;9.80;;;6.40;;
63193;SDS011;49289;51.670;5.624;2023-04-15T03:29:38;9.20;;;6.30;;
63193;SDS011;49289;51.670;5.624;2023-04-15T03:31:26;10.90;;;6.60;;
63193;SDS011;49289;51.670;5.624;2023-04-15T03:33:14;10.80;;;6.60;;
63193;SDS011;49289;51.670;5.624;2023-04-15T03:35:01;10.20;;;6.20;;
63193;SDS011;49289;51.670;5.624;2023-04-15T03:36:49;9.50;;;6.10;;
63193;SDS011;49289;51.670;5.624;2023-04-15T03:38:36;8.20;;;5.80;;
63193;SDS011;49289;51.670;5.624;2023-04-15T03:40:23;10.50;;;7.00;;
63193;SDS011;49289;51.670;5.624;2023-04-15T03:42:10;10.60;;;6.30;;
63193;SDS011;49289;51.670;5.624;2023-04-15T03:43:57;8.20;;;6.00;;
63193;SDS011;49289;51.670;5.624;2023-04-15T03:45:44;9.30;;;6.30;;
63193;SDS011;49289;51.670;5.624;2023-04-15T03:47:31;7.90;;;6.10;;
63193;SDS011;49289;51.670;5.624;2023-04-15T03:49:19;8.30;;;6.20;;
63193;SDS011;49289;51.670;5.624;2023-04-15T03:51:07;8.90;;;6.00;;
63193;SDS011;49289;51.670;5.624;2023-04-15T03:52:52;10.40;;;6.40;;
63193;SDS011;49289;51.670;5.624;2023-04-15T03:54:40;8.50;;;6.00;;
63193;SDS011;49289;51.670;5.624;2023-04-15T03:56:28;9.10;;;6.20;;
63193;SDS011;49289;51.670;5.624;2023-04-15T03:58:16;9.90;;;6.40;;
63193;SDS011;49289;51.670;5.624;2023-04-15T04:00:04;9.40;;;6.20;;
63193;SDS011;49289;51.670;5.624;2023-04-15T04:01:52;10.80;;;6.60;;
63193;SDS011;49289;51.670;5.624;2023-04-15T04:03:39;9.80;;;6.60;;
63193;SDS011;49289;51.670;5.624;2023-04-15T04:05:27;9.70;;;6.80;;
63193;SDS011;49289;51.670;5.624;2023-04-15T04:07:19;9.40;;;6.90;;
63193;SDS011;49289;51.670;5.624;2023-04-15T04:09:06;7.60;;;6.20;;
63193;SDS011;49289;51.670;5.624;2023-04-15T04:10:53;8.10;;;6.50;;
63193;SDS011;49289;51.670;5.624;2023-04-15T04:12:40;9.50;;;6.30;;
63193;SDS011;49289;51.670;5.624;2023-04-15T04:14:27;10.50;;;6.60;;
63193;SDS011;49289;51.670;5.624;2023-04-15T04:16:14;10.50;;;6.40;;
63193;SDS011;49289;51.670;5.624;2023-04-15T04:18:02;10.20;;;6.50;;
63193;SDS011;49289;51.670;5.624;2023-04-15T04:19:50;8.80;;;6.50;;
63193;SDS011;49289;51.670;5.624;2023-04-15T04:21:38;7.90;;;6.20;;
63193;SDS011;49289;51.670;5.624;2023-04-15T04:23:26;9.20;;;6.60;;
63193;SDS011;49289;51.670;5.624;2023-04-15T04:25:14;9.40;;;6.50;;
63193;SDS011;49289;51.670;5.624;2023-04-15T04:27:02;9.40;;;6.60;;
63193;SDS011;49289;51.670;5.624;2023-04-15T04:28:50;9.10;;;6.10;;
63193;SDS011;49289;51.670;5.624;2023-04-15T04:30:38;9.90;;;6.80;;
63193;SDS011;49289;51.670;5.624;2023-04-15T04:32:26;10.90;;;7.20;;
63193;SDS011;49289;51.670;5.624;2023-04-15T04:34:00;8.60;;;6.50;;
63193;SDS011;49289;51.670;5.624;2023-04-15T04:35:49;8.80;;;6.50;;
63193;SDS011;49289;51.670;5.624;2023-04-15T04:37:36;8.20;;;6.70;;
63193;SDS011;49289;51.670;5.624;2023-04-15T04:39:24;9.50;;;6.80;;
63193;SDS011;49289;51.670;5.624;2023-04-15T04:41:13;11.00;;;7.00;;
63193;SDS011;49289;51.670;5.624;2023-04-15T04:43:00;9.40;;;6.60;;
63193;SDS011;49289;51.670;5.624;2023-04-15T04:44:49;11.50;;;7.00;;
63193;SDS011;49289;51.670;5.624;2023-04-15T04:46:37;9.00;;;6.40;;
63193;SDS011;49289;51.670;5.624;2023-04-15T04:48:25;10.30;;;7.10;;
63193;SDS011;49289;51.670;5.624;2023-04-15T04:50:13;10.90;;;7.10;;
63193;SDS011;49289;51.670;5.624;2023-04-15T04:52:02;12.40;;;7.10;;
63193;SDS011;49289;51.670;5.624;2023-04-15T04:53:51;9.00;;;6.70;;
63193;SDS011;49289;51.670;5.624;2023-04-15T04:55:38;8.10;;;6.60;;
63193;SDS011;49289;51.670;5.624;2023-04-15T04:57:26;11.30;;;7.20;;
63193;SDS011;49289;51.670;5.624;2023-04-15T04:59:14;11.10;;;6.90;;
63193;SDS011;49289;51.670;5.624;2023-04-15T05:01:04;8.20;;;6.50;;
63193;SDS011;49289;51.670;5.624;2023-04-15T05:02:37;9.60;;;6.90;;
63193;SDS011;49289;51.670;5.624;2023-04-15T05:04:25;9.30;;;6.70;;
63193;SDS011;49289;51.670;5.624;2023-04-15T05:06:12;8.20;;;6.60;;
63193;SDS011;49289;51.670;5.624;2023-04-15T05:07:59;9.50;;;6.20;;
63193;SDS011;49289;51.670;5.624;2023-04-15T05:09:46;8.60;;;6.60;;
63193;SDS011;49289;51.670;5.624;2023-04-15T05:11:33;9.50;;;6.80;;
63193;SDS011;49289;51.670;5.624;2023-04-15T05:13:20;9.60;;;7.20;;
63193;SDS011;49289;51.670;5.624;2023-04-15T05:15:07;9.50;;;6.80;;
63193;SDS011;49289;51.670;5.624;2023-04-15T05:16:55;9.90;;;6.80;;
63193;SDS011;49289;51.670;5.624;2023-04-15T05:18:43;11.60;;;6.90;;
63193;SDS011;49289;51.670;5.624;2023-04-15T05:20:31;9.20;;;6.80;;
63193;SDS011;49289;51.670;5.624;2023-04-15T05:22:18;9.90;;;6.90;;
63193;SDS011;49289;51.670;5.624;2023-04-15T05:24:05;9.10;;;7.00;;
63193;SDS011;49289;51.670;5.624;2023-04-15T05:25:52;10.10;;;7.10;;
63193;SDS011;49289;51.670;5.624;2023-04-15T05:27:39;9.70;;;6.60;;
63193;SDS011;49289;51.670;5.624;2023-04-15T05:29:27;9.90;;;7.50;;
63193;SDS011;49289;51.670;5.624;2023-04-15T05:31:15;11.70;;;7.00;;
63193;SDS011;49289;51.670;5.624;2023-04-15T05:33:03;9.90;;;7.10;;
63193;SDS011;49289;51.670;5.624;2023-04-15T05:34:51;10.30;;;7.30;;
63193;SDS011;49289;51.670;5.624;2023-04-15T05:36:40;12.20;;;6.80;;
63193;SDS011;49289;51.670;5.624;2023-04-15T05:38:28;9.60;;;7.10;;
63193;SDS011;49289;51.670;5.624;2023-04-15T05:40:17;10.50;;;7.20;;
63193;SDS011;49289;51.670;5.624;2023-04-15T05:42:04;9.00;;;6.50;;
63193;SDS011;49289;51.670;5.624;2023-04-15T05:43:52;10.60;;;7.30;;
63193;SDS011;49289;51.670;5.624;2023-04-15T05:45:40;9.80;;;7.20;;
63193;SDS011;49289;51.670;5.624;2023-04-15T05:47:28;8.30;;;7.20;;
63193;SDS011;49289;51.670;5.624;2023-04-15T05:49:15;10.00;;;7.10;;
63193;SDS011;49289;51.670;5.624;2023-04-15T05:51:03;8.40;;;6.80;;
63193;SDS011;49289;51.670;5.624;2023-04-15T05:52:51;9.10;;;6.80;;
63193;SDS011;49289;51.670;5.624;2023-04-15T05:54:39;9.10;;;7.00;;
63193;SDS011;49289;51.670;5.624;2023-04-15T05:56:27;12.30;;;6.90;;
63193;SDS011;49289;51.670;5.624;2023-04-15T05:58:15;9.60;;;6.70;;
63193;SDS011;49289;51.670;5.624;2023-04-15T06:00:04;9.20;;;6.40;;
63193;SDS011;49289;51.670;5.624;2023-04-15T06:01:53;11.20;;;6.90;;
63193;SDS011;49289;51.670;5.624;2023-04-15T06:03:41;8.10;;;6.70;;
63193;SDS011;49289;51.670;5.624;2023-04-15T06:05:28;9.80;;;6.50;;
63193;SDS011;49289;51.670;5.624;2023-04-15T06:07:17;8.50;;;6.80;;
63193;SDS011;49289;51.670;5.624;2023-04-15T06:09:05;9.70;;;7.10;;
63193;SDS011;49289;51.670;5.624;2023-04-15T06:10:53;11.70;;;6.90;;
63193;SDS011;49289;51.670;5.624;2023-04-15T06:12:40;10.70;;;7.30;;
63193;SDS011;49289;51.670;5.624;2023-04-15T06:14:27;9.60;;;7.00;;
63193;SDS011;49289;51.670;5.624;2023-04-15T06:16:15;9.40;;;6.80;;
63193;SDS011;49289;51.670;5.624;2023-04-15T06:18:04;11.30;;;7.20;;
63193;SDS011;49289;51.670;5.624;2023-04-15T06:19:38;8.60;;;6.80;;
63193;SDS011;49289;51.670;5.624;2023-04-15T06:21:26;10.20;;;6.70;;
63193;SDS011;49289;51.670;5.624;2023-04-15T06:23:14;10.10;;;6.80;;
63193;SDS011;49289;51.670;5.624;2023-04-15T06:25:03;9.00;;;7.10;;
63193;SDS011;49289;51.670;5.624;2023-04-15T06:26:53;8.90;;;7.10;;
63193;SDS011;49289;51.670;5.624;2023-04-15T06:28:27;10.40;;;6.90;;
63193;SDS011;49289;51.670;5.624;2023-04-15T06:30:15;9.30;;;6.70;;
63193;SDS011;49289;51.670;5.624;2023-04-15T06:32:03;10.90;;;7.20;;
63193;SDS011;49289;51.670;5.624;2023-04-15T06:33:52;8.70;;;6.90;;
63193;SDS011;49289;51.670;5.624;2023-04-15T06:35:39;9.50;;;7.40;;
63193;SDS011;49289;51.670;5.624;2023-04-15T06:37:26;11.80;;;7.50;;
63193;SDS011;49289;51.670;5.624;2023-04-15T06:39:13;9.70;;;7.20;;
63193;SDS011;49289;51.670;5.624;2023-04-15T06:40:46;10.30;;;7.70;;
63193;SDS011;49289;51.670;5.624;2023-04-15T06:42:34;12.70;;;7.60;;
63193;SDS011;49289;51.670;5.624;2023-04-15T06:44:21;10.60;;;7.60;;
63193;SDS011;49289;51.670;5.624;2023-04-15T06:46:10;11.30;;;7.90;;
63193;SDS011;49289;51.670;5.624;2023-04-15T06:47:58;10.50;;;7.20;;
63193;SDS011;49289;51.670;5.624;2023-04-15T06:49:46;8.00;;;7.00;;
63193;SDS011;49289;51.670;5.624;2023-04-15T06:51:34;10.10;;;7.40;;
63193;SDS011;49289;51.670;5.624;2023-04-15T06:53:22;9.20;;;7.70;;
63193;SDS011;49289;51.670;5.624;2023-04-15T06:55:11;11.60;;;7.70;;
63193;SDS011;49289;51.670;5.624;2023-04-15T06:56:59;9.60;;;7.20;;
63193;SDS011;49289;51.670;5.624;2023-04-15T06:58:32;10.30;;;7.90;;
63193;SDS011;49289;51.670;5.624;2023-04-15T07:00:21;10.40;;;7.90;;
63193;SDS011;49289;51.670;5.624;2023-04-15T07:02:11;11.30;;;7.60;;
63193;SDS011;49289;51.670;5.624;2023-04-15T07:03:58;10.00;;;7.70;;
63193;SDS011;49289;51.670;5.624;2023-04-15T07:05:46;10.50;;;7.80;;
63193;SDS011;49289;51.670;5.624;2023-04-15T07:07:34;9.70;;;7.60;;
63193;SDS011;49289;51.670;5.624;2023-04-15T07:09:23;9.90;;;7.40;;
63193;SDS011;49289;51.670;5.624;2023-04-15T07:11:11;10.50;;;7.50;;
63193;SDS011;49289;51.670;5.624;2023-04-15T07:12:59;10.00;;;7.60;;
63193;SDS011;49289;51.670;5.624;2023-04-15T07:14:46;10.50;;;7.70;;
63193;SDS011;49289;51.670;5.624;2023-04-15T07:16:34;11.30;;;7.50;;
63193;SDS011;49289;51.670;5.624;2023-04-15T07:18:22;10.50;;;7.90;;
63193;SDS011;49289;51.670;5.624;2023-04-15T07:20:10;12.10;;;8.10;;
63193;SDS011;49289;51.670;5.624;2023-04-15T07:21:57;9.40;;;7.50;;
63193;SDS011;49289;51.670;5.624;2023-04-15T07:23:44;8.60;;;7.10;;
63193;SDS011;49289;51.670;5.624;2023-04-15T07:25:31;10.70;;;7.30;;
63193;SDS011;49289;51.670;5.624;2023-04-15T07:27:19;11.50;;;7.70;;
63193;SDS011;49289;51.670;5.624;2023-04-15T07:29:06;10.80;;;7.60;;
63193;SDS011;49289;51.670;5.624;2023-04-15T07:30:54;9.50;;;7.40;;
63193;SDS011;49289;51.670;5.624;2023-04-15T07:32:44;8.80;;;7.20;;
63193;SDS011;49289;51.670;5.624;2023-04-15T07:34:32;9.60;;;7.00;;
63193;SDS011;49289;51.670;5.624;2023-04-15T07:36:19;14.10;;;7.40;;
63193;SDS011;49289;51.670;5.624;2023-04-15T07:38:07;10.70;;;7.80;;
63193;SDS011;49289;51.670;5.624;2023-04-15T07:39:54;13.10;;;7.40;;
63193;SDS011;49289;51.670;5.624;2023-04-15T07:41:43;9.80;;;7.60;;
63193;SDS011;49289;51.670;5.624;2023-04-15T07:43:31;10.30;;;7.20;;
63193;SDS011;49289;51.670;5.624;2023-04-15T07:45:18;10.20;;;7.00;;
63193;SDS011;49289;51.670;5.624;2023-04-15T07:47:06;8.10;;;6.30;;
63193;SDS011;49289;51.670;5.624;2023-04-15T07:48:55;7.70;;;6.30;;
63193;SDS011;49289;51.670;5.624;2023-04-15T07:50:43;9.50;;;7.00;;
63193;SDS011;49289;51.670;5.624;2023-04-15T07:52:31;9.00;;;7.10;;
63193;SDS011;49289;51.670;5.624;2023-04-15T07:54:19;8.10;;;6.30;;
63193;SDS011;49289;51.670;5.624;2023-04-15T07:56:07;6.10;;;5.30;;
63193;SDS011;49289;51.670;5.624;2023-04-15T07:57:55;7.70;;;4.90;;
63193;SDS011;49289;51.670;5.624;2023-04-15T07:59:42;7.70;;;4.80;;
63193;SDS011;49289;51.670;5.624;2023-04-15T08:01:29;6.00;;;4.60;;
63193;SDS011;49289;51.670;5.624;2023-04-15T08:03:17;6.60;;;5.20;;
63193;SDS011;49289;51.670;5.624;2023-04-15T08:05:06;6.70;;;5.00;;
63193;SDS011;49289;51.670;5.624;2023-04-15T08:06:54;5.60;;;4.50;;
63193;SDS011;49289;51.670;5.624;2023-04-15T08:08:42;7.00;;;4.50;;
63193;SDS011;49289;51.670;5.624;2023-04-15T08:10:29;7.10;;;4.60;;
63193;SDS011;49289;51.670;5.624;2023-04-15T08:12:16;6.20;;;4.60;;
63193;SDS011;49289;51.670;5.624;2023-04-15T08:14:03;6.00;;;4.00;;
63193;SDS011;49289;51.670;5.624;2023-04-15T08:15:52;5.20;;;4.30;;
63193;SDS011;49289;51.670;5.624;2023-04-15T08:17:38;5.60;;;4.40;;
63193;SDS011;49289;51.670;5.624;2023-04-15T08:19:25;6.50;;;4.10;;
63193;SDS011;49289;51.670;5.624;2023-04-15T08:21:12;5.10;;;3.80;;
63193;SDS011;49289;51.670;5.624;2023-04-15T08:22:59;5.60;;;4.20;;
63193;SDS011;49289;51.670;5.624;2023-04-15T08:24:47;5.60;;;3.70;;
63193;SDS011;49289;51.670;5.624;2023-04-15T08:26:35;5.40;;;4.10;;
63193;SDS011;49289;51.670;5.624;2023-04-15T08:28:23;5.50;;;3.90;;
63193;SDS011;49289;51.670;5.624;2023-04-15T08:30:12;5.90;;;4.40;;
63193;SDS011;49289;51.670;5.624;2023-04-15T08:31:59;5.50;;;4.40;;
63193;SDS011;49289;51.670;5.624;2023-04-15T08:33:46;8.70;;;4.60;;
63193;SDS011;49289;51.670;5.624;2023-04-15T08:35:33;6.20;;;4.40;;
63193;SDS011;49289;51.670;5.624;2023-04-15T08:37:20;5.80;;;4.20;;
63193;SDS011;49289;51.670;5.624;2023-04-15T08:39:07;6.00;;;4.20;;
63193;SDS011;49289;51.670;5.624;2023-04-15T08:40:55;7.20;;;4.50;;
63193;SDS011;49289;51.670;5.624;2023-04-15T08:42:43;6.70;;;4.50;;
63193;SDS011;49289;51.670;5.624;2023-04-15T08:44:32;7.10;;;4.80;;
63193;SDS011;49289;51.670;5.624;2023-04-15T08:46:19;7.10;;;4.80;;
63193;SDS011;49289;51.670;5.624;2023-04-15T08:48:07;6.00;;;4.60;;
63193;SDS011;49289;51.670;5.624;2023-04-15T08:49:55;6.20;;;4.60;;
63193;SDS011;49289;51.670;5.624;2023-04-15T08:51:42;7.50;;;5.10;;
63193;SDS011;49289;51.670;5.624;2023-04-15T08:53:29;6.30;;;5.10;;
63193;SDS011;49289;51.670;5.624;2023-04-15T08:55:16;7.80;;;4.70;;
63193;SDS011;49289;51.670;5.624;2023-04-15T08:57:04;6.30;;;4.80;;
63193;SDS011;49289;51.670;5.624;2023-04-15T08:58:53;7.30;;;5.20;;
63193;SDS011;49289;51.670;5.624;2023-04-15T09:00:40;7.50;;;4.90;;
63193;SDS011;49289;51.670;5.624;2023-04-15T09:02:27;6.00;;;5.00;;
63193;SDS011;49289;51.670;5.624;2023-04-15T09:04:16;6.20;;;5.10;;
63193;SDS011;49289;51.670;5.624;2023-04-15T09:06:04;5.40;;;4.20;;
63193;SDS011;49289;51.670;5.624;2023-04-15T09:07:51;5.90;;;3.40;;
63193;SDS011;49289;51.670;5.624;2023-04-15T09:09:39;5.20;;;4.20;;
63193;SDS011;49289;51.670;5.624;2023-04-15T09:11:29;5.60;;;4.00;;
63193;SDS011;49289;51.670;5.624;2023-04-15T09:13:17;5.00;;;3.90;;
63193;SDS011;49289;51.670;5.624;2023-04-15T09:15:04;5.90;;;4.00;;
63193;SDS011;49289;51.670;5.624;2023-04-15T09:17:01;4.90;;;3.90;;
63193;SDS011;49289;51.670;5.624;2023-04-15T09:18:49;5.10;;;4.10;;
63193;SDS011;49289;51.670;5.624;2023-04-15T09:20:38;5.50;;;4.30;;
63193;SDS011;49289;51.670;5.624;2023-04-15T09:22:30;4.40;;;4.00;;
63193;SDS011;49289;51.670;5.624;2023-04-15T09:24:16;5.70;;;4.50;;
63193;SDS011;49289;51.670;5.624;2023-04-15T09:26:03;5.20;;;4.00;;
63193;SDS011;49289;51.670;5.624;2023-04-15T09:27:53;4.50;;;3.60;;
63193;SDS011;49289;51.670;5.624;2023-04-15T09:29:40;4.50;;;3.90;;
63193;SDS011;49289;51.670;5.624;2023-04-15T09:31:31;4.10;;;3.70;;
63193;SDS011;49289;51.670;5.624;2023-04-15T09:33:19;4.50;;;3.50;;
63193;SDS011;49289;51.670;5.624;2023-04-15T09:35:15;6.10;;;3.60;;
63193;SDS011;49289;51.670;5.624;2023-04-15T09:37:02;4.60;;;3.90;;
63193;SDS011;49289;51.670;5.624;2023-04-15T09:38:58;5.30;;;3.70;;
63193;SDS011;49289;51.670;5.624;2023-04-15T09:40:45;6.00;;;3.90;;
63193;SDS011;49289;51.670;5.624;2023-04-15T09:42:32;5.40;;;3.60;;
63193;SDS011;49289;51.670;5.624;2023-04-15T09:44:29;5.60;;;3.90;;
63193;SDS011;49289;51.670;5.624;2023-04-15T09:46:16;4.80;;;4.10;;
63193;SDS011;49289;51.670;5.624;2023-04-15T09:48:14;6.10;;;3.60;;
63193;SDS011;49289;51.670;5.624;2023-04-15T09:50:00;5.60;;;3.70;;
63193;SDS011;49289;51.670;5.624;2023-04-15T09:51:48;3.50;;;3.20;;
63193;SDS011;49289;51.670;5.624;2023-04-15T09:53:35;3.70;;;3.20;;
63193;SDS011;49289;51.670;5.624;2023-04-15T09:55:23;4.50;;;2.80;;
63193;SDS011;49289;51.670;5.624;2023-04-15T09:57:11;3.00;;;2.40;;
63193;SDS011;49289;51.670;5.624;2023-04-15T09:59:00;2.60;;;2.30;;
63193;SDS011;49289;51.670;5.624;2023-04-15T10:00:49;2.60;;;2.20;;
63193;SDS011;49289;51.670;5.624;2023-04-15T10:02:37;2.90;;;2.20;;
63193;SDS011;49289;51.670;5.624;2023-04-15T10:04:24;2.30;;;1.80;;
63193;SDS011;49289;51.670;5.624;2023-04-15T10:06:12;3.50;;;2.40;;
63193;SDS011;49289;51.670;5.624;2023-04-15T10:08:00;3.70;;;2.10;;
63193;SDS011;49289;51.670;5.624;2023-04-15T10:09:49;2.90;;;2.40;;
63193;SDS011;49289;51.670;5.624;2023-04-15T10:11:37;2.40;;;2.10;;
63193;SDS011;49289;51.670;5.624;2023-04-15T10:13:24;2.40;;;2.20;;
63193;SDS011;49289;51.670;5.624;2023-04-15T10:15:13;2.40;;;2.20;;
63193;SDS011;49289;51.670;5.624;2023-04-15T10:16:59;1.90;;;1.80;;
63193;SDS011;49289;51.670;5.624;2023-04-15T10:18:49;1.90;;;1.80;;
63193;SDS011;49289;51.670;5.624;2023-04-15T10:20:34;2.10;;;1.90;;
63193;SDS011;49289;51.670;5.624;2023-04-15T10:22:21;3.40;;;1.90;;
63193;SDS011;49289;51.670;5.624;2023-04-15T10:24:08;1.80;;;1.70;;
63193;SDS011;49289;51.670;5.624;2023-04-15T10:25:56;2.70;;;1.90;;
63193;SDS011;49289;51.670;5.624;2023-04-15T10:27:45;2.50;;;1.70;;
63193;SDS011;49289;51.670;5.624;2023-04-15T10:29:33;2.20;;;2.00;;
63193;SDS011;49289;51.670;5.624;2023-04-15T10:31:21;1.90;;;1.80;;
63193;SDS011;49289;51.670;5.624;2023-04-15T10:33:08;2.00;;;1.90;;
63193;SDS011;49289;51.670;5.624;2023-04-15T10:34:55;2.20;;;2.00;;
63193;SDS011;49289;51.670;5.624;2023-04-15T10:36:42;2.30;;;2.10;;
63193;SDS011;49289;51.670;5.624;2023-04-15T10:38:42;2.90;;;2.00;;
63193;SDS011;49289;51.670;5.624;2023-04-15T10:40:32;2.10;;;1.90;;
63193;SDS011;49289;51.670;5.624;2023-04-15T10:42:20;2.20;;;2.00;;
63193;SDS011;49289;51.670;5.624;2023-04-15T10:44:08;2.10;;;1.90;;
63193;SDS011;49289;51.670;5.624;2023-04-15T10:45:55;2.00;;;1.90;;
63193;SDS011;49289;51.670;5.624;2023-04-15T10:47:42;1.70;;;1.60;;